Time;durP1;ratioP1;P1;durP2;ratioP2;P2;SDS_P1;SDS_P2;PMS_P1;PMS_P2;Temp;Humidity;BMP_temperature;BMP_pressure;BME280_temperature;BME280_humidity;BME280_pressure;Samples;Min_cycle;Max_cycle;Signal;HPM_P1;HPM_P2
2023/01/05 00:01:48;;;;;;;17.13;16.23;;;;;;;8.97;100.00;97137.75;4954614;29;20181;-72
2023/01/05 00:04:14;;;;;;;19.57;18.67;;;;;;;8.96;100.00;97141.38;4953898;29;20700;-72
2023/01/05 00:06:40;;;;;;;13.83;13.13;;;;;;;8.91;100.00;97140.41;4954237;29;20205;-72
2023/01/05 00:09:07;;;;;;;10.63;10.13;;;;;;;8.92;100.00;97132.34;4954380;29;20283;-74
2023/01/05 00:22:47;;;;;;;11.07;10.57;;;;;;;8.99;100.00;97108.78;4954176;29;20667;-73
2023/01/05 00:25:16;;;;;;;9.30;8.90;;;;;;;9.04;100.00;97112.38;4954758;29;20185;-73
2023/01/05 00:27:43;;;;;;;9.80;9.40;;;;;;;9.04;100.00;97120.22;4954076;29;20189;-73
2023/01/05 00:30:11;;;;;;;11.00;10.50;;;;;;;9.07;100.00;97121.63;4954229;29;20202;-72
2023/01/05 00:32:36;;;;;;;15.17;14.47;;;;;;;9.10;100.00;97124.63;4954481;29;20189;-73
2023/01/05 00:35:02;;;;;;;18.40;17.53;;;;;;;9.12;100.00;97125.22;4953468;29;20193;-72
2023/01/05 00:37:31;;;;;;;18.07;17.07;;;;;;;9.15;100.00;97126.59;4954388;29;20585;-72
2023/01/05 00:39:57;;;;;;;11.27;10.77;;;;;;;9.15;100.00;97119.56;4952232;29;20673;-72
2023/01/05 00:42:22;;;;;;;11.23;10.73;;;;;;;9.19;100.00;97115.50;4953847;28;20197;-73
2023/01/05 00:44:47;;;;;;;12.43;11.83;;;;;;;9.27;100.00;97118.91;4955353;28;20193;-72
2023/01/05 00:47:13;;;;;;;14.43;13.77;;;;;;;9.29;100.00;97122.94;4957467;29;20193;-73
2023/01/05 00:49:38;;;;;;;12.43;11.90;;;;;;;9.34;100.00;97115.25;4957154;29;20209;-72
2023/01/05 00:52:04;;;;;;;12.37;11.83;;;;;;;9.34;100.00;97117.88;4957752;29;20632;-74
2023/01/05 00:54:29;;;;;;;12.17;11.67;;;;;;;9.36;100.00;97109.81;4952733;28;20220;-73
2023/01/05 00:56:55;;;;;;;11.90;11.40;;;;;;;9.28;100.00;97123.13;4976717;28;20231;-74
2023/01/05 00:59:20;;;;;;;10.83;10.33;;;;;;;9.30;100.00;97116.69;4969857;28;20192;-72
2023/01/05 01:01:48;;;;;;;11.03;10.53;;;;;;;9.34;100.00;97124.91;4976219;28;20185;-72
2023/01/05 01:04:14;;;;;;;10.90;10.40;;;;;;;9.37;100.00;97125.28;4975816;28;20690;-73
2023/01/05 01:06:39;;;;;;;11.83;11.30;;;;;;;9.38;100.00;97118.25;4976659;28;20212;-73
2023/01/05 01:09:05;;;;;;;10.07;9.67;;;;;;;9.37;100.00;97121.84;4976442;28;20291;-73
2023/01/05 01:11:30;;;;;;;11.17;10.67;;;;;;;9.40;100.00;97131.91;4976673;28;20222;-74
2023/01/05 01:13:55;;;;;;;9.77;9.37;;;;;;;9.35;100.00;97134.38;4976480;28;20639;-73
2023/01/05 01:16:21;;;;;;;11.27;10.77;;;;;;;9.30;100.00;97132.38;4978319;28;20256;-73
2023/01/05 01:18:46;;;;;;;10.87;10.37;;;;;;;9.40;100.00;97127.50;4977874;28;20189;-72
2023/01/05 01:21:11;;;;;;;13.47;12.87;;;;;;;9.32;100.00;97124.31;4976296;28;20189;-73
2023/01/05 01:23:37;;;;;;;12.87;12.27;;;;;;;9.36;100.00;97135.97;4975879;28;20196;-73
2023/01/05 01:26:07;;;;;;;13.30;12.70;;;;;;;9.39;100.00;97131.13;4976262;28;20215;-73
2023/01/05 01:28:33;;;;;;;13.60;13.00;;;;;;;9.39;100.00;97125.88;4975962;28;20173;-73
2023/01/05 01:30:59;;;;;;;17.73;16.90;;;;;;;9.40;100.00;97127.50;4977017;28;20663;-73
2023/01/05 01:33:24;;;;;;;20.03;19.10;;;;;;;9.44;100.00;97126.06;4975907;28;20707;-74
2023/01/05 01:35:50;;;;;;;21.23;20.23;;;;;;;9.48;100.00;97118.56;4976410;28;20263;-73
2023/01/05 01:38:15;;;;;;;19.30;18.40;;;;;;;9.39;100.00;97119.84;4976118;28;20662;-73
2023/01/05 01:40:43;;;;;;;22.10;21.03;;;;;;;9.43;100.00;97116.59;4973965;28;20193;-74
2023/01/05 01:43:15;;;;;;;23.37;22.23;;;;;;;9.36;100.00;97113.22;4978201;28;20248;-73
2023/01/05 01:45:41;;;;;;;21.70;20.67;;;;;;;9.47;100.00;97114.38;4978246;28;20185;-73
2023/01/05 01:48:11;;;;;;;23.53;22.30;;;;;;;9.41;100.00;97104.75;4975886;28;20231;-72
2023/01/05 01:50:46;;;;;;;23.90;22.80;;;;;;;9.41;100.00;97102.94;4975974;28;20255;-73
2023/01/05 01:53:20;;;;;;;25.40;24.20;;;;;;;9.40;100.00;97105.75;4958145;28;20195;-73
2023/01/05 01:55:45;;;;;;;23.30;22.17;;;;;;;9.41;100.00;97100.31;4974569;28;20259;-73
2023/01/05 01:58:15;;;;;;;25.87;24.60;;;;;;;9.39;100.00;97098.91;4975543;28;20205;-73
2023/01/05 02:00:41;;;;;;;23.97;22.83;;;;;;;9.44;100.00;97091.22;4975562;28;20640;-73
2023/01/05 02:03:07;;;;;;;23.90;22.77;;;;;;;9.51;100.00;97084.97;4975510;28;20230;-73
2023/01/05 02:05:33;;;;;;;27.03;25.73;;;;;;;9.45;100.00;97095.47;4975861;28;20194;-72
2023/01/05 02:07:59;;;;;;;23.30;22.20;;;;;;;9.46;100.00;97097.88;4975393;28;20192;-73
2023/01/05 02:10:39;;;;;;;24.70;23.40;;;;;;;9.37;100.00;97096.50;4975006;28;20205;-73
2023/01/05 02:13:07;;;;;;;19.90;18.97;;;;;;;9.40;100.00;97084.84;4975017;28;20204;-73
2023/01/05 02:16:05;;;;;;;19.63;18.73;;;;;;;9.44;100.00;97088.63;4975606;28;20211;-73
2023/01/05 02:18:58;;;;;;;16.00;15.23;;;;;;;9.39;100.00;97093.69;4975638;28;20181;-73
2023/01/05 02:21:58;;;;;;;14.53;13.87;;;;;;;9.43;100.00;97092.25;4974686;28;20610;-73
2023/01/05 02:24:36;;;;;;;14.83;14.10;;;;;;;9.33;100.00;97086.69;4934662;28;20304;-73
2023/01/05 02:27:36;;;;;;;11.13;10.63;;;;;;;9.38;100.00;97085.03;4975016;28;20179;-73
2023/01/05 02:30:04;;;;;;;8.53;8.13;;;;;;;9.38;100.00;97079.81;4948262;28;20227;-73
2023/01/05 02:32:51;;;;;;;6.77;6.47;;;;;;;9.35;100.00;97079.44;4974780;28;20710;-73
2023/01/05 02:35:32;;;;;;;6.37;6.13;;;;;;;9.30;100.00;97081.88;4975264;28;20658;-73
2023/01/05 02:38:09;;;;;;;5.60;5.40;;;;;;;9.32;100.00;97074.59;4974888;28;20192;-73
2023/01/05 02:40:41;;;;;;;5.40;5.20;;;;;;;9.33;100.00;97082.25;4972350;28;20196;-73
2023/01/05 02:43:08;;;;;;;4.63;4.43;;;;;;;9.39;100.00;97072.75;4970600;28;20579;-73
2023/01/05 02:45:34;;;;;;;5.53;5.23;;;;;;;9.37;100.00;97059.88;4975093;28;20296;-73
2023/01/05 02:47:59;;;;;;;4.50;4.40;;;;;;;9.41;100.00;97060.28;4974938;28;20230;-73
2023/01/05 02:50:41;;;;;;;5.03;4.83;;;;;;;9.41;100.00;97060.28;4974503;28;20206;-73
2023/01/05 02:53:16;;;;;;;4.93;4.73;;;;;;;9.37;100.00;97069.53;4974911;28;20230;-73
2023/01/05 02:55:49;;;;;;;7.13;6.83;;;;;;;9.31;100.00;97070.38;4974448;28;20219;-73
2023/01/05 02:58:33;;;;;;;5.43;5.23;;;;;;;9.32;100.00;97067.56;4974874;28;20255;-73
2023/01/05 03:01:23;;;;;;;5.10;4.90;;;;;;;9.40;100.00;97077.78;4973819;28;20180;-73
2023/01/05 03:03:56;;;;;;;4.63;4.47;;;;;;;9.41;100.00;97074.16;4974284;28;20196;-73
2023/01/05 03:06:28;;;;;;;4.83;4.63;;;;;;;9.40;100.00;97072.56;4974888;28;20322;-73
2023/01/05 03:08:58;;;;;;;4.17;4.07;;;;;;;9.48;100.00;97074.09;4973880;28;20208;-73
2023/01/05 03:14:26;;;;;;;5.10;4.90;;;;;;;9.44;100.00;97073.72;4974474;28;20279;-73
2023/01/05 03:16:55;;;;;;;4.57;4.37;;;;;;;9.48;100.00;97069.66;4974228;28;20184;-73
2023/01/05 03:19:38;;;;;;;5.53;5.33;;;;;;;9.52;100.00;97070.88;4974393;28;20267;-73
2023/01/05 03:36:22;;;;;;;4.07;3.97;;;;;;;9.50;100.00;97080.72;4973523;28;20220;-73
2023/01/05 03:38:50;;;;;;;4.53;4.23;;;;;;;9.50;100.00;97067.66;4967754;28;20304;-73
2023/01/05 03:41:18;;;;;;;5.57;5.30;;;;;;;9.51;100.00;97066.63;4968109;28;20216;-73
2023/01/05 03:43:46;;;;;;;5.20;5.00;;;;;;;9.51;100.00;97069.25;4956834;28;20196;-73
2023/01/05 03:46:18;;;;;;;5.70;5.30;;;;;;;9.50;100.00;97070.25;4973580;28;20184;-73
2023/01/05 03:48:44;;;;;;;5.43;5.23;;;;;;;9.54;100.00;97068.81;4974076;28;20292;-73
2023/01/05 03:51:09;;;;;;;5.53;5.33;;;;;;;9.54;100.00;97058.34;4973208;28;20184;-73
2023/01/05 03:53:34;;;;;;;5.80;5.50;;;;;;;9.54;100.00;97070.63;4974142;28;20189;-73
2023/01/05 03:56:00;;;;;;;5.80;5.53;;;;;;;9.58;100.00;97066.59;4973999;28;20225;-73
2023/01/05 03:58:25;;;;;;;4.87;4.47;;;;;;;9.59;100.00;97070.78;4974120;28;20260;-73
2023/01/05 04:00:50;;;;;;;5.53;5.13;;;;;;;9.64;100.00;97070.19;4956538;28;20581;-73
2023/01/05 04:03:16;;;;;;;7.00;6.30;;;;;;;9.71;100.00;97063.06;4973316;28;20211;-73
2023/01/05 04:05:41;;;;;;;11.43;8.57;;;;;;;9.70;100.00;97069.28;4974115;28;20191;-73
2023/01/05 04:08:06;;;;;;;12.27;9.07;;;;;;;9.63;100.00;97068.56;4956468;28;20201;-73
2023/01/05 04:10:32;;;;;;;14.63;11.50;;;;;;;9.67;100.00;97067.13;4973866;28;20201;-73
2023/01/05 04:12:57;;;;;;;13.83;11.43;;;;;;;9.67;100.00;97064.50;4973641;28;20205;-73
2023/01/05 04:15:23;;;;;;;15.47;12.17;;;;;;;9.64;100.00;97070.94;4974033;28;20199;-73
2023/01/05 04:17:48;;;;;;;12.37;11.17;;;;;;;9.67;100.00;97070.53;4973467;28;20188;-73
2023/01/05 04:20:13;;;;;;;13.20;11.90;;;;;;;9.69;100.00;97068.53;4975557;28;20670;-73
2023/01/05 04:22:39;;;;;;;8.57;7.77;;;;;;;9.77;100.00;97078.72;4977437;28;20655;-73
2023/01/05 04:25:05;;;;;;;6.73;6.17;;;;;;;9.77;100.00;97072.66;4977589;28;20188;-73
2023/01/05 04:27:30;;;;;;;6.50;6.00;;;;;;;9.79;100.00;97066.22;4977232;28;20188;-72
2023/01/05 04:29:55;;;;;;;7.33;6.83;;;;;;;9.82;100.00;97065.78;4977294;28;20196;-73
2023/01/05 04:32:21;;;;;;;7.37;6.97;;;;;;;9.96;100.00;97058.63;4977260;28;20214;-74
2023/01/05 04:34:46;;;;;;;6.93;6.63;;;;;;;9.91;100.00;97056.66;4977012;28;20550;-73
2023/01/05 04:37:11;;;;;;;6.83;6.53;;;;;;;9.94;100.00;97066.69;4959301;28;20271;-73
2023/01/05 04:39:37;;;;;;;6.83;6.43;;;;;;;9.86;100.00;97053.06;4959570;28;20204;-73
2023/01/05 04:42:02;;;;;;;6.93;6.53;;;;;;;9.86;100.00;97046.00;4959180;28;20223;-73
2023/01/05 04:44:27;;;;;;;7.30;6.90;;;;;;;9.85;100.00;97054.09;4977061;28;20228;-73
2023/01/05 04:46:53;;;;;;;6.03;5.83;;;;;;;9.86;100.00;97053.84;4977114;28;20192;-73
2023/01/05 04:49:18;;;;;;;6.87;6.57;;;;;;;9.85;100.00;97060.13;4977037;28;20267;-73
2023/01/05 04:51:43;;;;;;;7.07;6.67;;;;;;;9.89;100.00;97057.88;4976988;28;20188;-73
2023/01/05 04:54:09;;;;;;;6.67;6.37;;;;;;;9.84;100.00;97062.94;4976866;28;20192;-73
2023/01/05 04:56:34;;;;;;;6.53;6.30;;;;;;;9.92;100.00;97062.66;4957363;29;20233;-73
2023/01/05 04:58:59;;;;;;;6.90;6.40;;;;;;;9.93;100.00;97061.66;4957645;29;20279;-73
2023/01/05 05:01:28;;;;;;;4.57;4.40;;;;;;;9.92;100.00;97067.91;4957406;29;20704;-73
2023/01/05 05:03:53;;;;;;;4.90;4.70;;;;;;;9.96;100.00;97072.50;4956929;29;20201;-73
2023/01/05 05:06:19;;;;;;;4.37;4.27;;;;;;;9.95;100.00;97062.25;4957034;29;20185;-73
2023/01/05 05:08:44;;;;;;;6.17;5.87;;;;;;;9.98;100.00;97067.03;4957307;29;20220;-73
2023/01/05 05:11:10;;;;;;;5.60;5.40;;;;;;;9.97;100.00;97068.09;4957311;29;20268;-73
2023/01/05 05:13:35;;;;;;;5.87;5.57;;;;;;;9.98;100.00;97069.66;4957085;29;20675;-73
2023/01/05 05:16:00;;;;;;;5.23;5.03;;;;;;;9.95;100.00;97065.66;4957104;29;20186;-73
2023/01/05 05:18:28;;;;;;;5.00;4.70;;;;;;;9.91;100.00;97071.56;4957357;29;20248;-73
2023/01/05 05:20:54;;;;;;;4.97;4.77;;;;;;;9.93;100.00;97072.13;4957156;29;20185;-73
2023/01/05 05:23:20;;;;;;;4.70;4.53;;;;;;;9.89;100.00;97068.34;4957102;29;20193;-73
2023/01/05 05:25:49;;;;;;;4.73;4.53;;;;;;;9.91;100.00;97085.44;4957200;29;20201;-73
2023/01/05 05:28:14;;;;;;;4.43;4.23;;;;;;;9.93;100.00;97070.31;4956182;29;20196;-73
2023/01/05 05:30:39;;;;;;;4.50;4.30;;;;;;;9.97;100.00;97076.72;4956393;28;20197;-73
2023/01/05 05:33:04;;;;;;;5.43;5.23;;;;;;;9.95;100.00;97099.72;4956760;29;20185;-73
2023/01/05 05:35:30;;;;;;;4.33;4.13;;;;;;;9.95;100.00;97099.72;4956874;29;20192;-73
2023/01/05 05:37:55;;;;;;;6.07;5.87;;;;;;;9.94;100.00;97086.81;4954841;29;20284;-73
2023/01/05 05:40:21;;;;;;;5.10;4.90;;;;;;;9.81;100.00;97106.06;4955862;28;20201;-74
2023/01/05 05:42:46;;;;;;;4.57;4.37;;;;;;;9.73;100.00;97105.53;4955387;29;20201;-73
2023/01/05 05:45:11;;;;;;;5.43;5.13;;;;;;;9.64;100.00;97109.44;4956664;29;20201;-72
2023/01/05 05:47:37;;;;;;;5.37;5.17;;;;;;;9.67;100.00;97111.59;4956044;29;20216;-74
2023/01/05 05:50:02;;;;;;;4.00;3.90;;;;;;;9.55;100.00;97117.53;4956632;29;20209;-74
2023/01/05 05:52:27;;;;;;;3.27;3.17;;;;;;;9.52;100.00;97123.19;4956697;29;20636;-73
2023/01/05 05:54:53;;;;;;;4.27;4.17;;;;;;;9.53;100.00;97134.44;4956158;28;20225;-73
2023/01/05 05:57:18;;;;;;;4.03;3.93;;;;;;;9.51;100.00;97131.25;4956589;29;20632;-72
2023/01/05 05:59:43;;;;;;;3.67;3.57;;;;;;;9.44;100.00;97141.75;4956236;29;20540;-72
2023/01/05 06:02:09;;;;;;;4.87;4.53;;;;;;;9.44;100.00;97146.19;4956056;29;20262;-73
2023/01/05 06:04:34;;;;;;;4.10;4.00;;;;;;;9.37;100.00;97153.25;4956036;29;20196;-74
2023/01/05 06:06:59;;;;;;;4.60;4.50;;;;;;;9.35;100.00;97156.09;4956272;29;20196;-74
2023/01/05 06:09:25;;;;;;;4.03;3.90;;;;;;;9.34;100.00;97156.28;4955799;29;20245;-74
2023/01/05 06:11:50;;;;;;;3.80;3.70;;;;;;;9.43;100.00;97153.22;4956178;29;20177;-74
2023/01/05 06:14:16;;;;;;;3.63;3.53;;;;;;;9.40;100.00;97160.69;4955741;29;20188;-74
2023/01/05 06:16:41;;;;;;;3.80;3.60;;;;;;;9.46;100.00;97165.91;4956178;29;20183;-73
2023/01/05 06:19:08;;;;;;;3.50;3.40;;;;;;;9.41;100.00;97175.38;4956183;29;20253;-74
2023/01/05 06:21:33;;;;;;;4.10;3.90;;;;;;;9.43;100.00;97166.28;4955905;29;20245;-74
2023/01/05 06:23:59;;;;;;;3.80;3.70;;;;;;;9.30;100.00;97171.63;4956028;29;20185;-74
2023/01/05 06:26:24;;;;;;;3.83;3.73;;;;;;;9.30;100.00;97182.09;4955903;29;20205;-74
2023/01/05 06:28:49;;;;;;;3.33;3.23;;;;;;;9.34;100.00;97185.06;4955910;29;20256;-74
2023/01/05 06:31:15;;;;;;;3.70;3.60;;;;;;;9.15;100.00;97173.69;4955802;29;20189;-74
2023/01/05 06:33:40;;;;;;;3.50;3.40;;;;;;;9.17;100.00;97185.56;4955643;29;20600;-74
2023/01/05 06:36:06;;;;;;;4.53;4.33;;;;;;;9.18;100.00;97195.00;4955156;29;20598;-75
2023/01/05 06:38:31;;;;;;;4.10;3.97;;;;;;;9.14;100.00;97199.03;4953758;29;20341;-73
2023/01/05 06:40:58;;;;;;;4.10;3.97;;;;;;;9.14;100.00;97201.63;4954821;28;20444;-73
2023/01/05 06:43:23;;;;;;;3.13;3.03;;;;;;;9.12;100.00;97215.94;4954709;28;20297;-74
2023/01/05 06:45:49;;;;;;;3.87;3.77;;;;;;;8.99;100.00;97208.94;4955672;29;20276;-73
2023/01/05 06:48:14;;;;;;;4.77;4.60;;;;;;;9.02;100.00;97211.16;4955655;29;20182;-73
2023/01/05 06:50:39;;;;;;;3.83;3.63;;;;;;;8.99;100.00;97206.31;4938163;29;20197;-74
2023/01/05 06:53:05;;;;;;;5.37;5.17;;;;;;;9.08;100.00;97212.91;4958197;29;20193;-72
2023/01/05 06:55:30;;;;;;;4.87;4.67;;;;;;;9.02;100.00;97205.94;4954949;28;20700;-74
2023/01/05 06:57:56;;;;;;;5.50;5.23;;;;;;;8.98;100.00;97217.78;4955391;29;20177;-73
2023/01/05 07:00:21;;;;;;;5.10;4.90;;;;;;;8.99;100.00;97229.84;4946530;29;20185;-73
2023/01/05 07:02:46;;;;;;;5.77;5.53;;;;;;;9.00;100.00;97226.22;4954486;29;20185;-74
2023/01/05 07:05:12;;;;;;;6.10;5.87;;;;;;;8.96;100.00;97224.25;4954897;29;20190;-73
2023/01/05 07:07:37;;;;;;;4.90;4.70;;;;;;;8.94;100.00;97223.63;4954883;29;20224;-73
2023/01/05 07:10:04;;;;;;;4.00;3.70;;;;;;;8.90;100.00;97217.22;4955173;29;20208;-73
2023/01/05 07:12:29;;;;;;;3.80;3.43;;;;;;;8.88;100.00;97227.06;4954856;29;20189;-74
2023/01/05 07:14:55;;;;;;;4.00;3.60;;;;;;;8.83;100.00;97226.88;4954947;29;20202;-73
2023/01/05 07:17:20;;;;;;;4.00;3.70;;;;;;;8.83;100.00;97234.72;4954980;29;20217;-72
2023/01/05 07:19:45;;;;;;;3.67;3.37;;;;;;;8.84;100.00;97237.13;4955051;29;20280;-73
2023/01/05 07:22:10;;;;;;;4.10;3.70;;;;;;;8.82;100.00;97231.28;4954876;29;20220;-73
2023/01/05 07:24:36;;;;;;;5.90;3.93;;;;;;;8.83;100.00;97237.31;4955014;29;20280;-72
2023/01/05 07:27:01;;;;;;;4.27;3.93;;;;;;;8.83;100.00;97245.16;4954887;29;20201;-72
2023/01/05 07:29:27;;;;;;;5.03;4.60;;;;;;;8.84;100.00;97247.59;4954526;29;20212;-72
2023/01/05 07:31:52;;;;;;;5.07;4.67;;;;;;;8.88;100.00;97250.59;4954566;29;20252;-73
2023/01/05 07:34:19;;;;;;;4.77;4.57;;;;;;;8.86;100.00;97261.25;4954327;29;20264;-73
2023/01/05 07:36:44;;;;;;;5.13;3.83;;;;;;;8.85;100.00;97251.81;4952862;29;20189;-73
2023/01/05 07:39:10;;;;;;;4.10;3.80;;;;;;;8.88;100.00;97248.78;4954611;29;20552;-73
2023/01/05 07:41:35;;;;;;;5.93;5.53;;;;;;;8.90;100.00;97259.03;4936355;29;20616;-71
2023/01/05 07:44:00;;;;;;;4.20;3.90;;;;;;;8.97;100.00;97268.47;4953555;29;20220;-72
2023/01/05 07:46:26;;;;;;;3.67;3.47;;;;;;;9.02;100.00;97265.25;4954732;29;20260;-72
2023/01/05 07:48:51;;;;;;;3.37;3.23;;;;;;;9.02;100.00;97260.84;4954520;29;20216;-72
2023/01/05 07:51:17;;;;;;;5.27;3.30;;;;;;;9.04;100.00;97258.78;4954010;29;20189;-72
2023/01/05 07:53:42;;;;;;;3.97;3.67;;;;;;;9.05;100.00;97270.88;4953427;28;20220;-72
2023/01/05 07:56:09;;;;;;;4.47;3.90;;;;;;;9.02;100.00;97265.25;4970238;28;20220;-71
2023/01/05 07:58:34;;;;;;;5.80;4.67;;;;;;;9.00;100.00;97272.50;4958868;29;20173;-71
2023/01/05 08:01:04;;;;;;;6.23;5.70;;;;;;;9.04;100.00;97276.28;4961307;28;20255;-72
2023/01/05 08:03:29;;;;;;;6.37;5.87;;;;;;;9.03;100.00;97272.06;4977067;28;20184;-71
2023/01/05 08:05:55;;;;;;;6.13;4.33;;;;;;;9.02;100.00;97284.34;4955423;28;20186;-71
2023/01/05 08:08:20;;;;;;;5.13;4.77;;;;;;;9.00;100.00;97288.19;4977795;28;20199;-71
2023/01/05 08:10:45;;;;;;;5.57;5.13;;;;;;;9.05;100.00;97291.78;4977542;28;21102;-72
2023/01/05 08:15:56;;;;;;;4.57;4.27;;;;;;;9.04;100.00;97298.00;4977593;28;20188;-72
2023/01/05 08:18:22;;;;;;;4.30;4.00;;;;;;;9.04;100.00;97305.84;4961710;28;20188;-71
2023/01/05 08:20:52;;;;;;;6.10;5.17;;;;;;;9.05;100.00;97306.66;4960035;28;20227;-71
2023/01/05 08:23:18;;;;;;;6.83;5.07;;;;;;;8.97;100.00;97307.66;4977276;28;20540;-71
2023/01/05 08:25:44;;;;;;;4.63;4.23;;;;;;;8.98;100.00;97311.09;4977345;28;20196;-71
2023/01/05 08:28:09;;;;;;;7.27;5.33;;;;;;;9.06;100.00;97316.13;4976909;28;20211;-71
2023/01/05 08:30:34;;;;;;;6.87;5.90;;;;;;;9.17;100.00;97310.28;4977136;28;20256;-71
2023/01/05 08:33:00;;;;;;;5.67;4.63;;;;;;;9.18;100.00;97315.31;4975505;28;20195;-71
2023/01/05 08:35:25;;;;;;;8.80;5.33;;;;;;;9.17;100.00;97315.50;4976813;28;20199;-72
2023/01/05 08:37:50;;;;;;;6.17;5.77;;;;;;;9.19;100.00;97321.34;4973936;28;20287;-71
2023/01/05 08:40:16;;;;;;;7.13;6.47;;;;;;;9.22;100.00;97327.97;4976372;28;20234;-71
2023/01/05 08:42:41;;;;;;;5.60;4.97;;;;;;;9.33;100.00;97333.38;4976435;28;20181;-71
2023/01/05 08:45:07;;;;;;;8.43;7.73;;;;;;;9.29;100.00;97331.38;4976657;28;20189;-72
2023/01/05 08:47:32;;;;;;;6.30;5.70;;;;;;;9.33;100.00;97325.53;4960972;28;20188;-71
2023/01/05 08:49:58;;;;;;;5.27;4.77;;;;;;;9.35;100.00;97328.75;4976719;28;20208;-71
2023/01/05 08:52:23;;;;;;;5.97;5.47;;;;;;;9.28;100.00;97335.78;4976652;28;20189;-71
2023/01/05 08:54:49;;;;;;;6.13;5.53;;;;;;;9.33;100.00;97328.13;4975906;28;20264;-71
2023/01/05 08:57:15;;;;;;;4.17;3.77;;;;;;;9.35;100.00;97327.94;4976722;28;20691;-71
2023/01/05 08:59:41;;;;;;;5.30;3.87;;;;;;;9.30;100.00;97319.91;4976721;28;20232;-71
2023/01/05 09:02:10;;;;;;;5.03;3.50;;;;;;;9.28;100.00;97327.94;4976718;28;20184;-71
2023/01/05 09:04:35;;;;;;;7.57;6.07;;;;;;;9.27;100.00;97342.03;4976519;28;20652;-71
2023/01/05 09:07:01;;;;;;;7.17;3.97;;;;;;;9.62;100.00;97329.47;4975344;28;20225;-71
2023/01/05 09:09:26;;;;;;;8.67;4.47;;;;;;;10.06;100.00;97341.75;4976434;28;20204;-71
2023/01/05 09:11:52;;;;;;;6.40;5.60;;;;;;;9.63;100.00;97357.25;4976766;28;20632;-72
2023/01/05 09:14:17;;;;;;;10.57;5.83;;;;;;;9.34;100.00;97358.53;4976506;28;20281;-71
2023/01/05 09:16:43;;;;;;;9.23;5.40;;;;;;;9.26;100.00;97366.56;4976618;28;20202;-72
2023/01/05 09:19:09;;;;;;;6.73;5.10;;;;;;;9.27;100.00;97364.75;4976085;28;20185;-72
2023/01/05 09:21:34;;;;;;;8.33;6.40;;;;;;;9.21;100.00;97369.00;4976155;28;20187;-73
2023/01/05 09:24:00;;;;;;;9.30;6.37;;;;;;;9.23;100.00;97374.84;4975876;28;20699;-72
2023/01/05 09:26:25;;;;;;;10.57;4.47;;;;;;;9.23;100.00;97377.47;4976167;28;20227;-72
2023/01/05 09:28:50;;;;;;;10.67;6.20;;;;;;;9.17;100.00;97371.22;4975128;28;20224;-73
2023/01/05 09:31:21;;;;;;;10.23;6.43;;;;;;;9.24;100.00;97375.66;4975851;28;20228;-72
2023/01/05 09:33:47;;;;;;;9.67;6.80;;;;;;;9.25;100.00;97380.66;4975728;28;20256;-73
2023/01/05 09:36:14;;;;;;;11.27;8.90;;;;;;;9.35;100.00;97381.06;4974347;28;20279;-73
2023/01/05 09:38:40;;;;;;;10.00;9.10;;;;;;;9.21;100.00;97389.13;4975924;28;20192;-72
2023/01/05 09:41:15;;;;;;;10.90;8.83;;;;;;;9.21;100.00;97387.31;4975254;28;20198;-72
2023/01/05 09:43:42;;;;;;;12.30;5.33;;;;;;;9.29;100.00;97394.16;4975738;28;20172;-72
2023/01/05 09:46:19;;;;;;;7.83;5.30;;;;;;;9.34;100.00;97386.50;4975804;28;20200;-72
2023/01/05 09:48:49;;;;;;;14.83;5.37;;;;;;;9.35;100.00;97388.91;4975165;28;20200;-73
2023/01/05 09:51:14;;;;;;;12.53;5.93;;;;;;;9.44;100.00;97397.34;4974950;28;20192;-72
2023/01/05 09:53:40;;;;;;;12.37;5.53;;;;;;;9.48;100.00;97391.50;4975119;28;20307;-72
2023/01/05 09:56:20;;;;;;;8.03;4.93;;;;;;;9.51;100.00;97406.78;4975206;28;20228;-72
2023/01/05 09:58:46;;;;;;;11.47;5.43;;;;;;;9.67;100.00;97405.53;4975302;28;20181;-72
2023/01/05 10:01:15;;;;;;;14.00;11.83;;;;;;;9.62;100.00;97410.59;4975506;28;20229;-72
2023/01/05 10:03:55;;;;;;;16.10;14.17;;;;;;;9.67;100.00;97407.34;4974987;28;20207;-72
2023/01/05 10:06:25;;;;;;;11.80;5.90;;;;;;;9.70;100.00;97402.50;4975487;28;20225;-72
2023/01/05 10:08:52;;;;;;;11.83;5.43;;;;;;;9.72;100.00;97402.31;4975809;28;20639;-72
2023/01/05 10:14:17;;;;;;;9.13;4.67;;;;;;;9.74;100.00;97411.56;4938343;28;20193;-74
2023/01/05 10:16:44;;;;;;;15.40;5.47;;;;;;;9.92;100.00;97411.69;4975097;28;20263;-72
2023/01/05 10:19:13;;;;;;;11.27;4.70;;;;;;;9.87;100.00;97408.91;4975172;28;20177;-72
2023/01/05 10:21:57;;;;;;;10.20;4.73;;;;;;;9.89;100.00;97401.66;4975511;28;20272;-72
2023/01/05 10:24:46;;;;;;;8.53;3.97;;;;;;;9.97;100.00;97404.03;4974534;28;20181;-72
2023/01/05 10:27:22;;;;;;;8.73;4.53;;;;;;;10.05;100.00;97404.81;4975197;28;20281;-72
2023/01/05 10:29:56;;;;;;;7.57;6.77;;;;;;;10.15;100.00;97402.56;4960441;28;20570;-72
2023/01/05 10:32:21;;;;;;;8.73;6.00;;;;;;;10.17;100.00;97396.13;4957776;28;20247;-73
2023/01/05 10:35:22;;;;;;;12.90;8.63;;;;;;;10.19;100.00;97388.88;4972896;28;20188;-73
2023/01/05 10:38:02;;;;;;;16.93;15.27;;;;;;;10.14;99.88;97385.25;4911763;28;20291;-72
2023/01/05 10:40:40;;;;;;;20.33;18.57;;;;;;;10.16;100.00;97397.16;4973734;28;20343;-73
2023/01/05 10:43:18;;;;;;;13.10;11.97;;;;;;;10.17;99.02;97390.09;4975023;28;20173;-72
2023/01/05 10:45:43;;;;;;;15.47;14.10;;;;;;;10.26;98.79;97388.81;4958886;28;20729;-72
2023/01/05 10:48:12;;;;;;;20.70;19.10;;;;;;;10.34;97.49;97394.66;4957279;28;20219;-72
2023/01/05 10:50:41;;;;;;;21.63;19.47;;;;;;;10.47;98.45;97385.91;4974860;28;20208;-72
2023/01/05 10:53:18;;;;;;;17.07;15.53;;;;;;;10.31;96.28;97394.25;4974312;28;20185;-73
2023/01/05 10:55:47;;;;;;;25.17;23.23;;;;;;;10.46;97.08;97392.16;4974469;28;20224;-72
2023/01/05 10:58:27;;;;;;;19.97;18.50;;;;;;;10.54;96.28;97389.28;4974638;28;20271;-73
2023/01/05 11:00:58;;;;;;;18.37;17.03;;;;;;;10.59;95.70;97384.19;4974265;28;20184;-73
2023/01/05 11:03:32;;;;;;;13.87;12.53;;;;;;;10.53;95.49;97379.03;4973049;28;20656;-72
2023/01/05 11:05:58;;;;;;;16.87;15.30;;;;;;;10.34;94.61;97388.59;4974813;28;20228;-72
2023/01/05 11:08:28;;;;;;;12.60;6.80;;;;;;;10.34;94.65;97386.78;4974493;28;20200;-73
2023/01/05 11:10:58;;;;;;;12.83;8.93;;;;;;;10.38;93.74;97382.72;4956177;28;20205;-73
2023/01/05 11:13:39;;;;;;;8.60;6.53;;;;;;;10.47;92.62;97385.09;4974450;28;20192;-72
2023/01/05 11:16:11;;;;;;;10.20;8.40;;;;;;;10.30;94.16;97390.84;4974390;28;20198;-72
2023/01/05 11:19:00;;;;;;;9.87;8.90;;;;;;;10.46;93.77;97394.78;4973406;28;20677;-73
2023/01/05 11:21:29;;;;;;;8.83;6.83;;;;;;;10.39;93.82;97388.78;4961119;28;20192;-72
2023/01/05 11:23:57;;;;;;;14.03;7.23;;;;;;;10.45;93.91;97387.13;4974025;28;20271;-72
2023/01/05 11:26:29;;;;;;;11.03;6.03;;;;;;;10.56;93.12;97402.19;4974169;28;20255;-72
2023/01/05 11:28:57;;;;;;;6.60;4.97;;;;;;;10.54;92.56;97405.00;4973437;28;20172;-72
2023/01/05 11:31:34;;;;;;;7.90;5.93;;;;;;;10.42;91.82;97394.38;4974050;28;20181;-72
2023/01/05 11:34:07;;;;;;;10.03;6.30;;;;;;;10.40;93.03;97385.94;4973769;28;20602;-74
2023/01/05 11:36:33;;;;;;;8.10;6.17;;;;;;;10.55;92.39;97390.88;4971217;28;20251;-74
2023/01/05 11:38:58;;;;;;;11.73;9.77;;;;;;;10.70;91.03;97395.84;4955976;28;20663;-73
2023/01/05 11:41:24;;;;;;;7.83;5.87;;;;;;;10.70;92.09;97380.91;4974057;28;20188;-73
2023/01/05 11:43:53;;;;;;;12.63;10.03;;;;;;;10.51;89.85;97392.34;4973973;28;20647;-73
2023/01/05 11:46:20;;;;;;;9.17;8.07;;;;;;;10.53;90.33;97392.13;4973693;28;20189;-73
2023/01/05 11:48:56;;;;;;;14.47;13.10;;;;;;;10.74;90.83;97384.72;4973824;28;20187;-73
2023/01/05 11:51:35;;;;;;;8.20;6.10;;;;;;;10.51;89.33;97383.66;4974120;28;20263;-73
2023/01/05 11:54:00;;;;;;;10.83;8.13;;;;;;;10.53;89.72;97394.75;4973675;28;20267;-73
2023/01/05 11:56:26;;;;;;;12.17;8.87;;;;;;;10.66;89.21;97381.53;4955782;28;20648;-73
2023/01/05 11:58:53;;;;;;;10.83;6.87;;;;;;;10.67;88.37;97385.78;4953466;29;20661;-76
2023/01/05 12:01:43;;;;;;;10.00;6.60;;;;;;;10.60;89.66;97377.94;4953981;29;20215;-73
2023/01/05 12:04:37;;;;;;;8.13;6.97;;;;;;;10.68;89.30;97377.72;4953939;29;20173;-73
2023/01/05 12:07:34;;;;;;;8.10;5.87;;;;;;;10.90;89.04;97372.91;4948107;29;20623;-73
2023/01/05 12:10:22;;;;;;;8.27;7.47;;;;;;;10.98;88.31;97371.84;4952904;29;20220;-73